Time;durP1;ratioP1;P1;durP2;ratioP2;P2;SDS_P1;SDS_P2;PMS_P1;PMS_P2;Temp;Humidity;BMP_temperature;BMP_pressure;BME280_temperature;BME280_humidity;BME280_pressure;Samples;Min_cycle;Max_cycle;Signal;HPM_P1;HPM_P2
2023/01/10 00:01:47;;;;;;;15.98;3.80;;;4.00;99.90;;;;;;5050316;28;20072;-85
2023/01/10 00:04:13;;;;;;;17.08;3.95;;;4.00;99.90;;;;;;5049925;28;20076;-85
2023/01/10 00:06:38;;;;;;;12.23;4.00;;;3.90;99.90;;;;;;5050937;28;20544;-85
2023/01/10 00:09:04;;;;;;;13.77;4.35;;;3.90;99.90;;;;;;5064314;28;20033;-83
2023/01/10 00:14:14;;;;;;;18.50;4.63;;;3.90;99.90;;;;;;5080957;28;20052;-83
2023/01/10 00:16:41;;;;;;;22.85;4.20;;;4.00;99.90;;;;;;5063653;28;20113;-83
2023/01/10 00:19:09;;;;;;;24.83;4.35;;;4.10;99.90;;;;;;5048283;28;20049;-83
2023/01/10 00:21:35;;;;;;;28.15;5.40;;;4.20;99.90;;;;;;5066515;28;20047;-83
2023/01/10 00:24:16;;;;;;;19.20;4.65;;;4.30;99.90;;;;;;5066075;28;20044;-82
2023/01/10 00:26:43;;;;;;;22.15;5.72;;;4.30;99.90;;;;;;5063901;28;20047;-83
2023/01/10 00:29:09;;;;;;;20.20;4.47;;;4.40;99.90;;;;;;5062852;28;20538;-83
2023/01/10 00:31:35;;;;;;;25.60;5.78;;;4.50;99.90;;;;;;5065846;28;20045;-83
2023/01/10 00:34:00;;;;;;;19.27;4.75;;;4.50;99.90;;;;;;5050530;28;20039;-83
2023/01/10 00:36:26;;;;;;;20.38;4.80;;;4.60;99.90;;;;;;5049855;28;20074;-83
2023/01/10 00:38:51;;;;;;;25.33;4.40;;;4.60;99.90;;;;;;5064517;28;20055;-83
2023/01/10 00:44:02;;;;;;;26.33;4.78;;;4.70;99.90;;;;;;5064899;28;20041;-83
2023/01/10 00:46:28;;;;;;;18.63;4.60;;;4.80;99.90;;;;;;5065290;28;20047;-83
2023/01/10 00:48:53;;;;;;;21.55;4.22;;;4.90;99.90;;;;;;5047831;28;20049;-82
2023/01/10 00:51:19;;;;;;;22.00;4.68;;;5.10;99.90;;;;;;5064669;28;20523;-83
2023/01/10 00:53:44;;;;;;;21.13;4.57;;;5.10;99.90;;;;;;5048293;28;20040;-85
2023/01/10 00:56:10;;;;;;;22.15;4.65;;;5.10;99.90;;;;;;5049813;28;20036;-85
2023/01/10 00:58:36;;;;;;;25.90;4.40;;;5.20;99.90;;;;;;5049222;28;20041;-85
2023/01/10 01:01:01;;;;;;;23.85;5.25;;;5.20;99.90;;;;;;5050296;28;20405;-85
2023/01/10 01:03:27;;;;;;;22.90;4.68;;;5.20;99.90;;;;;;5065559;28;20047;-84
2023/01/10 01:05:52;;;;;;;21.55;4.30;;;5.30;99.90;;;;;;5065671;28;20029;-85
2023/01/10 01:08:18;;;;;;;26.27;4.63;;;5.30;99.90;;;;;;5062910;28;20036;-85
2023/01/10 01:10:45;;;;;;;19.42;4.35;;;5.30;99.90;;;;;;5063300;28;20067;-85
2023/01/10 01:13:19;;;;;;;24.80;4.18;;;5.30;99.90;;;;;;5047336;28;20713;-85
2023/01/10 01:15:45;;;;;;;18.33;4.25;;;5.20;99.90;;;;;;5061132;28;20432;-85
2023/01/10 01:18:12;;;;;;;14.63;4.05;;;5.20;99.90;;;;;;5065644;28;20169;-85
2023/01/10 01:20:39;;;;;;;21.75;4.25;;;5.10;99.90;;;;;;5061268;28;20040;-85
2023/01/10 01:23:05;;;;;;;24.35;4.47;;;5.10;99.90;;;;;;5079482;28;20028;-85
2023/01/10 01:25:31;;;;;;;25.17;4.63;;;5.20;99.90;;;;;;5050058;28;20523;-85
2023/01/10 01:27:57;;;;;;;18.95;3.97;;;5.20;99.90;;;;;;5048868;28;20036;-85
2023/01/10 01:30:22;;;;;;;24.60;4.78;;;5.20;99.90;;;;;;5064008;28;20037;-85
2023/01/10 01:32:48;;;;;;;23.77;4.30;;;5.20;99.90;;;;;;5061876;28;20075;-85
2023/01/10 01:35:15;;;;;;;22.15;4.10;;;5.30;99.90;;;;;;5063806;28;20040;-85
2023/01/10 01:37:41;;;;;;;17.08;4.00;;;5.30;99.90;;;;;;5048564;28;20044;-85
2023/01/10 01:40:13;;;;;;;20.35;3.90;;;5.30;99.90;;;;;;5047236;28;20063;-85
2023/01/10 01:42:39;;;;;;;24.50;4.50;;;5.20;99.90;;;;;;5064547;28;20044;-85
2023/01/10 01:45:08;;;;;;;21.50;4.13;;;5.20;99.90;;;;;;5063850;28;20036;-85
2023/01/10 01:47:54;;;;;;;20.90;4.07;;;5.10;99.90;;;;;;5048566;28;20090;-85
2023/01/10 01:50:42;;;;;;;19.83;4.47;;;5.10;99.90;;;;;;5060453;28;20054;-85
2023/01/10 01:53:21;;;;;;;20.55;4.22;;;5.20;99.90;;;;;;5046863;28;20045;-85
2023/01/10 01:55:47;;;;;;;18.83;3.97;;;5.20;99.90;;;;;;5063222;28;20442;-85
2023/01/10 01:58:17;;;;;;;16.70;4.28;;;5.40;99.90;;;;;;5063896;28;20044;-85
2023/01/10 02:00:43;;;;;;;20.33;3.80;;;5.40;99.90;;;;;;5063009;28;20047;-85
2023/01/10 02:03:10;;;;;;;17.75;4.28;;;5.50;99.90;;;;;;5046637;28;20139;-85
2023/01/10 02:05:38;;;;;;;21.55;3.78;;;5.50;99.90;;;;;;5045847;28;20401;-85
2023/01/10 02:08:04;;;;;;;14.50;3.63;;;5.60;99.90;;;;;;5044175;28;20649;-84
2023/01/10 02:10:47;;;;;;;19.50;4.75;;;5.70;99.90;;;;;;5059262;28;20032;-84
2023/01/10 02:13:16;;;;;;;18.45;4.38;;;5.80;99.90;;;;;;5047116;28;20641;-85
2023/01/10 02:15:42;;;;;;;19.90;4.53;;;5.80;99.90;;;;;;5061981;28;20661;-85
2023/01/10 02:18:08;;;;;;;19.52;4.45;;;5.90;99.90;;;;;;5063857;28;20153;-85
2023/01/10 02:21:01;;;;;;;19.38;4.15;;;5.80;99.90;;;;;;5062862;28;20036;-85
2023/01/10 02:23:55;;;;;;;24.58;4.57;;;5.80;99.90;;;;;;5043418;28;20033;-85
2023/01/10 02:26:44;;;;;;;18.35;3.92;;;5.70;99.90;;;;;;5062116;28;20047;-85
2023/01/10 02:29:45;;;;;;;20.75;4.30;;;5.60;99.90;;;;;;5061860;28;20119;-84
2023/01/10 02:32:10;;;;;;;21.00;4.25;;;5.50;99.90;;;;;;5042837;28;20558;-85
2023/01/10 02:35:03;;;;;;;16.65;3.75;;;5.40;99.90;;;;;;5045945;28;20040;-85
2023/01/10 02:38:08;;;;;;;18.95;3.85;;;5.20;99.90;;;;;;5060169;28;20051;-85
2023/01/10 02:42:08;;;;;;;18.73;3.97;;;5.20;99.90;;;;;;4997642;27;20444;-83
2023/01/10 02:44:52;;;;;;;20.90;4.05;;;5.30;99.90;;;;;;4982721;28;20502;-83
2023/01/10 02:47:18;;;;;;;21.55;4.47;;;5.40;99.90;;;;;;4982652;28;20355;-83
2023/01/10 02:49:46;;;;;;;14.23;3.97;;;5.40;99.90;;;;;;4981017;28;20095;-83
2023/01/10 02:52:16;;;;;;;18.63;4.60;;;5.40;99.90;;;;;;4984711;28;20046;-83
2023/01/10 02:54:42;;;;;;;14.15;4.13;;;5.40;99.90;;;;;;5001159;28;20118;-82
2023/01/10 02:57:19;;;;;;;18.90;4.47;;;5.50;99.90;;;;;;4984141;28;20073;-83
2023/01/10 02:59:56;;;;;;;22.02;4.47;;;5.60;99.90;;;;;;4979755;28;20047;-83
2023/01/10 03:02:37;;;;;;;18.30;4.05;;;5.60;99.90;;;;;;5042041;28;20135;-83
2023/01/10 03:05:34;;;;;;;20.00;4.25;;;5.60;99.90;;;;;;4983190;28;20062;-83
2023/01/10 03:08:22;;;;;;;17.15;4.13;;;5.70;99.90;;;;;;5012041;28;20050;-83
2023/01/10 03:11:38;;;;;;;16.25;3.67;;;5.80;99.90;;;;;;4998179;28;20387;-83
2023/01/10 03:14:09;;;;;;;18.65;3.60;;;5.90;99.90;;;;;;4958388;28;20080;-83
2023/01/10 03:16:36;;;;;;;17.13;4.00;;;5.90;99.90;;;;;;4922419;28;20057;-83
2023/01/10 03:19:06;;;;;;;19.75;3.88;;;6.00;99.90;;;;;;4924851;28;20090;-83
2023/01/10 03:21:34;;;;;;;16.60;3.88;;;6.00;99.90;;;;;;4926537;28;20132;-83
2023/01/10 03:24:05;;;;;;;17.92;4.47;;;6.00;99.90;;;;;;4941825;28;20461;-83
2023/01/10 03:26:58;;;;;;;20.48;4.30;;;6.00;99.90;;;;;;4925006;28;20549;-83
2023/01/10 03:29:31;;;;;;;16.55;4.00;;;6.10;99.90;;;;;;4927068;28;20067;-82
2023/01/10 03:32:01;;;;;;;20.15;4.25;;;6.10;99.90;;;;;;4926044;28;20059;-83
2023/01/10 03:34:27;;;;;;;22.88;4.70;;;6.10;99.90;;;;;;4926161;28;20126;-83
2023/01/10 03:37:11;;;;;;;19.90;4.00;;;6.10;99.90;;;;;;4925173;28;20130;-83
2023/01/10 03:39:49;;;;;;;20.98;4.40;;;6.10;99.90;;;;;;4922915;28;20039;-83
2023/01/10 03:44:42;;;;;;;16.17;4.03;;;6.10;99.90;;;;;;4937990;28;20043;-83
2023/01/10 03:45:27;;;;;;;15.82;3.75;;;6.20;99.90;;;;;;4938779;28;20062;-83
2023/01/10 03:47:55;;;;;;;20.05;4.28;;;6.20;99.90;;;;;;4941052;28;20049;-83
2023/01/10 03:50:23;;;;;;;18.23;3.97;;;6.20;99.90;;;;;;4958592;28;20054;-83
2023/01/10 03:52:49;;;;;;;18.02;4.20;;;6.20;99.90;;;;;;4972069;28;20042;-83
2023/01/10 03:55:20;;;;;;;15.57;3.83;;;6.20;99.90;;;;;;4969127;28;20096;-82
2023/01/10 03:57:46;;;;;;;21.88;4.50;;;6.20;99.90;;;;;;4985257;28;20122;-83
2023/01/10 04:00:12;;;;;;;20.50;4.30;;;6.10;99.90;;;;;;4986156;28;20117;-83
2023/01/10 04:02:38;;;;;;;24.42;4.32;;;6.10;99.90;;;;;;5015929;28;20042;-83
2023/01/10 04:05:05;;;;;;;17.13;4.22;;;6.00;99.90;;;;;;4971034;28;20048;-83
2023/01/10 04:07:31;;;;;;;24.42;4.63;;;5.90;99.90;;;;;;4968652;28;20045;-82
2023/01/10 04:09:57;;;;;;;18.73;4.38;;;5.90;99.90;;;;;;5020067;28;20390;-83
2023/01/10 04:12:22;;;;;;;21.58;4.18;;;5.70;99.90;;;;;;4969641;28;20042;-82
2023/01/10 04:14:48;;;;;;;24.73;4.43;;;5.70;99.90;;;;;;4968269;28;20470;-83
2023/01/10 04:17:15;;;;;;;19.88;3.95;;;5.60;99.90;;;;;;4986495;28;20099;-83
2023/01/10 04:19:41;;;;;;;24.17;4.72;;;5.60;99.90;;;;;;4984830;28;20085;-83
2023/01/10 04:22:08;;;;;;;33.92;4.88;;;5.60;99.90;;;;;;4984602;28;20507;-83
2023/01/10 04:24:33;;;;;;;21.42;4.30;;;5.60;99.90;;;;;;4984624;28;20062;-83
2023/01/10 04:26:59;;;;;;;21.08;3.95;;;5.50;99.90;;;;;;4968803;28;20930;-83
2023/01/10 04:29:25;;;;;;;14.75;3.85;;;5.60;99.90;;;;;;4966817;28;20034;-83
2023/01/10 04:31:51;;;;;;;24.40;4.78;;;5.50;99.90;;;;;;4983649;28;20046;-83
2023/01/10 04:34:19;;;;;;;19.73;4.20;;;5.50;99.90;;;;;;5015746;28;20036;-83
2023/01/10 04:36:45;;;;;;;20.63;4.28;;;5.50;99.90;;;;;;4963952;28;20047;-83
2023/01/10 04:39:11;;;;;;;25.55;4.88;;;5.50;99.90;;;;;;4970815;28;20046;-83
2023/01/10 04:41:36;;;;;;;20.55;4.78;;;5.50;99.90;;;;;;4982333;28;20062;-82
2023/01/10 04:44:02;;;;;;;27.10;4.53;;;5.50;99.90;;;;;;4969419;28;20129;-83
2023/01/10 04:46:28;;;;;;;18.80;4.40;;;5.60;99.90;;;;;;4965442;28;20100;-82
2023/01/10 04:48:54;;;;;;;21.17;4.93;;;5.60;99.90;;;;;;4982077;28;20042;-83
2023/01/10 04:51:19;;;;;;;19.65;4.75;;;5.70;99.90;;;;;;4966835;28;20548;-82
2023/01/10 04:53:45;;;;;;;21.13;4.95;;;5.90;99.90;;;;;;4970888;28;20043;-82
2023/01/10 04:56:17;;;;;;;17.60;4.20;;;5.90;99.90;;;;;;4980152;28;20522;-82
2023/01/10 04:58:42;;;;;;;16.85;3.90;;;6.00;99.90;;;;;;4982452;28;20050;-82
2023/01/10 05:01:13;;;;;;;17.15;4.13;;;6.00;99.90;;;;;;4969334;28;20053;-82
2023/01/10 05:03:39;;;;;;;21.80;4.15;;;6.10;99.90;;;;;;5027083;28;20404;-82
2023/01/10 05:06:05;;;;;;;21.65;4.03;;;6.00;99.90;;;;;;4996337;28;20042;-83
2023/01/10 05:08:31;;;;;;;18.80;4.15;;;6.00;99.90;;;;;;5009080;28;20038;-83
2023/01/10 05:10:57;;;;;;;21.65;4.32;;;6.00;99.90;;;;;;4969550;28;20038;-82
2023/01/10 05:13:23;;;;;;;17.60;4.28;;;5.90;99.90;;;;;;4966338;28;20421;-83
2023/01/10 05:15:52;;;;;;;15.52;3.60;;;5.90;99.90;;;;;;4966606;28;20058;-83
2023/01/10 05:18:17;;;;;;;21.17;4.22;;;5.90;99.90;;;;;;4982261;28;20047;-82
2023/01/10 05:20:43;;;;;;;13.30;4.15;;;6.00;99.90;;;;;;4968028;28;20039;-82
2023/01/10 05:23:09;;;;;;;19.33;4.35;;;6.10;99.90;;;;;;4997497;28;20031;-83
2023/01/10 05:25:34;;;;;;;19.13;4.25;;;6.10;99.90;;;;;;4966754;28;20518;-82
2023/01/10 05:28:00;;;;;;;19.75;4.57;;;6.10;99.90;;;;;;4968944;28;20046;-83
2023/01/10 05:30:25;;;;;;;19.95;4.50;;;6.10;99.90;;;;;;4966657;28;20118;-83
2023/01/10 05:32:51;;;;;;;18.55;4.60;;;6.10;99.90;;;;;;4981209;28;20046;-83
2023/01/10 05:35:17;;;;;;;17.25;3.95;;;6.10;99.90;;;;;;4982172;28;20046;-83
2023/01/10 05:37:42;;;;;;;18.98;3.80;;;6.10;99.90;;;;;;4968918;28;20043;-82
2023/01/10 05:40:08;;;;;;;16.45;3.58;;;6.10;99.90;;;;;;4989188;28;20088;-83
2023/01/10 05:42:34;;;;;;;12.77;3.92;;;6.20;99.90;;;;;;4983322;28;20127;-83
2023/01/10 05:45:00;;;;;;;15.85;3.92;;;6.20;99.90;;;;;;4982474;28;20065;-82
2023/01/10 05:47:26;;;;;;;12.63;3.80;;;6.20;99.90;;;;;;4986400;28;20513;-82
2023/01/10 05:49:51;;;;;;;13.77;4.03;;;6.20;99.90;;;;;;4998165;28;20592;-82
2023/01/10 05:52:17;;;;;;;19.92;3.67;;;6.30;99.90;;;;;;4965609;28;21495;-83
2023/01/10 05:54:43;;;;;;;15.38;3.40;;;6.30;99.90;;;;;;4967650;28;20120;-82
2023/01/10 05:57:09;;;;;;;12.68;3.40;;;6.20;99.90;;;;;;4981908;28;20053;-82
2023/01/10 05:59:35;;;;;;;14.13;3.55;;;6.20;99.90;;;;;;4965250;28;20478;-82
2023/01/10 06:02:00;;;;;;;11.32;3.80;;;6.20;99.90;;;;;;4982603;28;20226;-82
2023/01/10 06:04:26;;;;;;;15.13;3.28;;;6.20;99.90;;;;;;4963097;28;20042;-83
2023/01/10 06:06:51;;;;;;;12.60;3.35;;;6.20;99.90;;;;;;4999103;28;20100;-82
2023/01/10 06:09:17;;;;;;;14.63;3.63;;;6.20;99.90;;;;;;4982323;28;20038;-82
2023/01/10 06:11:43;;;;;;;11.70;3.38;;;6.20;99.90;;;;;;4965985;28;20049;-83
2023/01/10 06:14:09;;;;;;;11.35;3.13;;;6.30;99.90;;;;;;4995545;28;20036;-83
2023/01/10 06:16:35;;;;;;;14.90;3.50;;;6.30;99.90;;;;;;4977350;28;20355;-82
2023/01/10 06:19:00;;;;;;;12.70;3.38;;;6.30;99.90;;;;;;4984507;28;20042;-82
2023/01/10 06:21:26;;;;;;;12.35;3.60;;;6.30;99.90;;;;;;4964687;28;20077;-82
2023/01/10 06:23:52;;;;;;;12.20;3.40;;;6.30;99.90;;;;;;4967988;28;20043;-82
2023/01/10 06:26:17;;;;;;;11.43;3.40;;;6.30;99.90;;;;;;4979727;28;20045;-82
2023/01/10 06:28:43;;;;;;;13.75;3.10;;;6.30;99.90;;;;;;4962305;28;20121;-82
2023/01/10 06:31:09;;;;;;;10.55;3.42;;;6.20;99.90;;;;;;4966849;28;20044;-82
2023/01/10 06:33:35;;;;;;;11.65;3.40;;;6.20;99.90;;;;;;5009824;28;20095;-82
2023/01/10 06:36:01;;;;;;;13.27;3.50;;;6.10;99.90;;;;;;4980496;28;20030;-82
2023/01/10 06:38:27;;;;;;;11.82;3.05;;;6.00;99.90;;;;;;4979490;28;20417;-82
2023/01/10 06:40:52;;;;;;;14.52;3.50;;;5.90;99.90;;;;;;4983533;28;20212;-82
2023/01/10 06:43:18;;;;;;;10.32;3.00;;;5.80;99.90;;;;;;4987586;28;20046;-82
2023/01/10 06:45:43;;;;;;;13.90;3.17;;;5.70;99.90;;;;;;4980109;28;20051;-82
2023/01/10 06:48:09;;;;;;;13.05;3.13;;;5.60;99.90;;;;;;4966114;28;20045;-82
2023/01/10 06:50:34;;;;;;;11.40;3.50;;;5.50;99.90;;;;;;4967781;28;20476;-82
2023/01/10 06:53:02;;;;;;;11.95;3.38;;;5.40;99.90;;;;;;4965051;28;20047;-82
2023/01/10 06:55:28;;;;;;;12.77;3.42;;;5.40;99.90;;;;;;4967380;28;20116;-82
2023/01/10 06:58:02;;;;;;;14.77;3.88;;;5.30;99.90;;;;;;4979274;28;20039;-82
2023/01/10 07:00:28;;;;;;;14.63;3.60;;;5.20;99.90;;;;;;4965558;28;20038;-82
2023/01/10 07:02:58;;;;;;;15.27;3.65;;;5.10;99.90;;;;;;4969790;28;20038;-81
2023/01/10 07:05:24;;;;;;;18.33;4.03;;;5.20;99.90;;;;;;4979816;28;20040;-82
2023/01/10 07:07:49;;;;;;;16.38;4.28;;;5.10;99.90;;;;;;4967863;28;20043;-82
2023/01/10 07:10:15;;;;;;;14.07;3.95;;;5.20;99.90;;;;;;4987062;28;20038;-82
2023/01/10 07:12:41;;;;;;;26.77;5.05;;;5.20;99.90;;;;;;4979456;28;20042;-82
2023/01/10 07:15:07;;;;;;;18.65;4.95;;;5.20;99.90;;;;;;4966133;28;20406;-82
2023/01/10 07:17:33;;;;;;;27.40;4.63;;;5.30;99.90;;;;;;4981441;28;20335;-83
2023/01/10 07:19:58;;;;;;;26.85;5.30;;;5.30;99.90;;;;;;4968788;28;20469;-82
2023/01/10 07:22:24;;;;;;;24.05;5.55;;;5.40;99.90;;;;;;4967711;28;20073;-82
2023/01/10 07:24:49;;;;;;;22.02;5.95;;;5.50;99.90;;;;;;4967725;28;20051;-83
2023/01/10 07:27:15;;;;;;;26.85;5.50;;;5.60;99.90;;;;;;4965058;28;20038;-82
2023/01/10 07:29:41;;;;;;;28.90;5.45;;;5.70;99.90;;;;;;4967492;28;20483;-82
2023/01/10 07:32:06;;;;;;;25.92;6.68;;;5.70;99.90;;;;;;4982462;28;20035;-83
2023/01/10 07:34:32;;;;;;;22.45;6.05;;;5.80;99.90;;;;;;4970293;28;20129;-82
2023/01/10 07:36:57;;;;;;;32.15;5.88;;;5.80;99.90;;;;;;4971338;28;20043;-82
2023/01/10 07:39:23;;;;;;;24.58;5.53;;;5.80;99.90;;;;;;4969975;28;20410;-83
2023/01/10 07:41:49;;;;;;;28.88;5.97;;;5.80;99.90;;;;;;4967525;28;20073;-83
2023/01/10 07:44:15;;;;;;;25.48;5.55;;;5.80;99.90;;;;;;4970682;28;20501;-83
2023/01/10 07:46:41;;;;;;;27.20;5.72;;;5.80;99.90;;;;;;4969472;28;20038;-83
2023/01/10 07:49:07;;;;;;;29.55;6.53;;;5.80;99.90;;;;;;4986996;28;20421;-83
2023/01/10 07:51:33;;;;;;;25.60;6.22;;;5.90;99.90;;;;;;4970837;28;20555;-82
2023/01/10 07:53:58;;;;;;;28.00;6.10;;;5.90;99.90;;;;;;4970619;28;20080;-82
2023/01/10 07:56:24;;;;;;;25.60;6.55;;;5.80;99.90;;;;;;4969717;28;20042;-83
2023/01/10 07:58:50;;;;;;;26.63;5.90;;;5.80;99.90;;;;;;5024327;28;20128;-83
2023/01/10 08:01:16;;;;;;;23.75;5.75;;;5.80;99.90;;;;;;4979739;28;20042;-82
2023/01/10 08:03:41;;;;;;;30.50;6.22;;;5.80;99.90;;;;;;5014484;28;20086;-83
2023/01/10 08:06:09;;;;;;;19.90;6.35;;;5.80;99.90;;;;;;4981346;28;20038;-83
2023/01/10 08:08:36;;;;;;;36.42;6.60;;;5.80;99.90;;;;;;4970476;28;20039;-83
2023/01/10 08:11:01;;;;;;;24.98;6.50;;;5.80;99.90;;;;;;4967656;28;20502;-82
2023/01/10 08:13:28;;;;;;;31.25;7.18;;;5.80;99.90;;;;;;4985272;28;20040;-83
2023/01/10 08:15:54;;;;;;;22.75;6.10;;;5.80;99.90;;;;;;4968434;28;20082;-82
2023/01/10 08:18:21;;;;;;;24.98;4.82;;;5.80;99.90;;;;;;4969767;28;20054;-83
2023/01/10 08:20:49;;;;;;;25.73;6.22;;;5.70;99.90;;;;;;4967297;28;20050;-82
2023/01/10 08:23:15;;;;;;;30.48;6.30;;;5.70;99.90;;;;;;5005370;28;20129;-82
2023/01/10 08:25:40;;;;;;;29.23;6.88;;;5.70;99.90;;;;;;4997194;28;20035;-83
2023/01/10 08:28:06;;;;;;;28.08;6.32;;;5.60;99.90;;;;;;4971534;28;20069;-82
2023/01/10 08:30:32;;;;;;;34.05;6.72;;;5.60;99.90;;;;;;4967950;28;20141;-82
2023/01/10 08:33:00;;;;;;;22.45;5.97;;;5.60;99.90;;;;;;5013613;28;20593;-83
2023/01/10 08:35:26;;;;;;;31.30;6.55;;;5.70;99.90;;;;;;4985285;28;20035;-82
2023/01/10 08:37:51;;;;;;;25.45;6.43;;;5.80;99.90;;;;;;4970095;28;20031;-82
2023/01/10 08:40:17;;;;;;;29.45;6.85;;;5.80;99.90;;;;;;4984874;28;20094;-82
2023/01/10 08:42:43;;;;;;;34.92;6.80;;;5.80;99.90;;;;;;4965798;28;20407;-82
2023/01/10 08:45:09;;;;;;;29.10;6.28;;;5.80;99.90;;;;;;4970807;28;20474;-82
2023/01/10 08:47:34;;;;;;;26.23;6.70;;;5.90;99.90;;;;;;4967363;28;20130;-83
2023/01/10 08:50:00;;;;;;;26.73;6.90;;;5.90;99.90;;;;;;4983273;28;20046;-82
2023/01/10 08:52:25;;;;;;;29.52;5.68;;;5.90;99.90;;;;;;4968958;28;20030;-82
2023/01/10 08:54:51;;;;;;;30.58;6.30;;;6.00;99.90;;;;;;4988959;28;20101;-82
2023/01/10 08:57:16;;;;;;;33.70;6.22;;;6.00;99.90;;;;;;4984922;28;20092;-83
2023/01/10 08:59:42;;;;;;;23.05;5.72;;;6.00;99.90;;;;;;4963977;28;20030;-82
2023/01/10 09:02:12;;;;;;;25.27;6.18;;;6.00;99.90;;;;;;5004117;28;20089;-82
2023/01/10 09:04:37;;;;;;;26.70;5.90;;;6.00;99.90;;;;;;4968491;28;20101;-82
2023/01/10 09:07:03;;;;;;;30.13;6.28;;;5.90;99.90;;;;;;4985880;28;20037;-83
2023/01/10 09:09:28;;;;;;;23.65;5.75;;;6.00;99.90;;;;;;4983814;28;20067;-83
2023/01/10 09:11:54;;;;;;;24.40;5.60;;;6.00;99.90;;;;;;4969313;28;20410;-83
2023/01/10 09:14:20;;;;;;;23.73;5.30;;;6.10;99.90;;;;;;4996861;28;20042;-82
2023/01/10 09:16:45;;;;;;;25.63;5.88;;;6.10;99.90;;;;;;4964655;28;20847;-83
2023/01/10 09:19:11;;;;;;;19.50;5.55;;;6.10;99.90;;;;;;4981502;28;20251;-82
2023/01/10 09:21:36;;;;;;;19.92;5.35;;;6.20;99.90;;;;;;4985625;28;20034;-82
2023/01/10 09:24:02;;;;;;;26.60;5.65;;;6.30;99.90;;;;;;4995802;28;20040;-83
2023/01/10 09:26:28;;;;;;;22.40;5.25;;;6.30;99.90;;;;;;4966788;28;20161;-83
2023/01/10 09:28:53;;;;;;;20.30;5.07;;;6.40;99.90;;;;;;4984985;28;20448;-84
2023/01/10 09:31:19;;;;;;;23.02;5.60;;;6.40;99.90;;;;;;4965971;28;20061;-85
2023/01/10 09:33:45;;;;;;;20.17;5.05;;;6.50;99.90;;;;;;4967123;28;20073;-85
2023/01/10 09:36:12;;;;;;;21.30;5.95;;;6.50;99.90;;;;;;4984907;28;21179;-83
2023/01/10 09:38:38;;;;;;;21.48;5.57;;;6.60;99.90;;;;;;4983160;28;20428;-83
2023/01/10 09:41:34;;;;;;;21.23;5.05;;;6.60;99.90;;;;;;4965781;28;20056;-83
2023/01/10 09:44:35;;;;;;;18.20;5.18;;;6.70;99.90;;;;;;4960733;28;20521;-83
2023/01/10 09:47:20;;;;;;;21.15;4.78;;;6.70;99.90;;;;;;4997384;28;20050;-84
2023/01/10 09:50:39;;;;;;;21.40;5.63;;;6.80;99.90;;;;;;5001529;28;20436;-83
2023/01/10 09:53:12;;;;;;;26.40;5.47;;;6.80;99.90;;;;;;4985278;28;20500;-84
2023/01/10 09:55:39;;;;;;;25.48;5.97;;;6.90;99.90;;;;;;4965132;28;20112;-83
2023/01/10 09:58:11;;;;;;;26.05;6.50;;;6.80;99.90;;;;;;4975136;28;20084;-83
2023/01/10 10:00:49;;;;;;;23.70;5.88;;;6.90;99.90;;;;;;4981039;28;20050;-84
2023/01/10 10:03:30;;;;;;;23.83;6.15;;;6.90;99.90;;;;;;4967185;28;20067;-83
2023/01/10 10:05:56;;;;;;;27.33;6.13;;;6.90;99.90;;;;;;4986806;28;20119;-83
2023/01/10 10:08:22;;;;;;;22.80;4.80;;;7.00;99.90;;;;;;4967563;28;20045;-83
2023/01/10 10:11:25;;;;;;;16.85;5.13;;;7.00;99.90;;;;;;4967916;28;20050;-83
2023/01/10 10:14:14;;;;;;;23.92;5.88;;;7.00;99.90;;;;;;5000716;28;20038;-83
2023/01/10 10:16:46;;;;;;;26.77;6.03;;;7.10;99.90;;;;;;4964695;28;20038;-83
2023/01/10 10:19:26;;;;;;;20.70;5.28;;;7.10;99.90;;;;;;4982479;28;20046;-83
2023/01/10 10:21:55;;;;;;;24.27;5.45;;;7.10;99.90;;;;;;4965758;28;20451;-83
2023/01/10 10:24:41;;;;;;;28.83;5.78;;;7.10;99.90;;;;;;4981388;28;20034;-83
2023/01/10 10:27:32;;;;;;;23.75;5.38;;;7.20;99.90;;;;;;4966429;28;20038;-83
2023/01/10 10:30:10;;;;;;;23.08;5.50;;;7.10;99.90;;;;;;4968923;28;20039;-83
2023/01/10 10:32:35;;;;;;;24.20;5.72;;;7.20;99.90;;;;;;4980757;28;20478;-83
2023/01/10 10:35:11;;;;;;;24.67;5.00;;;7.20;99.90;;;;;;4963741;28;20479;-82
2023/01/10 10:37:44;;;;;;;20.80;4.97;;;7.20;99.90;;;;;;4979486;28;20038;-83
2023/01/10 10:40:13;;;;;;;21.42;5.15;;;7.20;99.90;;;;;;4988365;28;20082;-83
2023/01/10 10:42:43;;;;;;;23.95;5.20;;;7.20;99.90;;;;;;4979732;28;20125;-83
2023/01/10 10:45:20;;;;;;;23.52;4.68;;;7.20;99.90;;;;;;4981324;28;20050;-83
2023/01/10 10:47:56;;;;;;;22.27;4.95;;;7.30;99.90;;;;;;4966491;28;20036;-83
2023/01/10 10:50:33;;;;;;;24.42;5.07;;;7.30;99.90;;;;;;4978184;28;20046;-83
2023/01/10 10:53:04;;;;;;;23.58;4.22;;;7.30;99.90;;;;;;4972057;28;20552;-83
2023/01/10 10:55:35;;;;;;;24.50;5.53;;;7.30;99.90;;;;;;4964084;28;20422;-83
2023/01/10 10:58:06;;;;;;;21.17;4.65;;;7.30;99.90;;;;;;4977793;28;20045;-83
2023/01/10 11:00:35;;;;;;;22.00;5.38;;;7.40;99.90;;;;;;4960864;28;20046;-84
2023/01/10 11:03:29;;;;;;;27.52;6.28;;;7.40;99.90;;;;;;4957422;28;20050;-84
2023/01/10 11:05:56;;;;;;;22.20;5.90;;;7.40;99.90;;;;;;4982365;28;20038;-84
2023/01/10 11:08:23;;;;;;;26.13;6.65;;;7.40;99.90;;;;;;4967966;28;21265;-84
2023/01/10 11:10:54;;;;;;;28.48;6.80;;;7.40;99.90;;;;;;4967039;28;20074;-84
2023/01/10 11:13:32;;;;;;;22.77;7.05;;;7.40;99.90;;;;;;4982664;28;20050;-84
2023/01/10 11:15:59;;;;;;;28.63;8.20;;;7.50;99.90;;;;;;4982058;28;20482;-84
2023/01/10 11:18:29;;;;;;;31.13;8.52;;;7.50;99.90;;;;;;4985295;28;20057;-84
2023/01/10 11:20:59;;;;;;;24.63;7.10;;;7.50;99.90;;;;;;4970461;28;20046;-84
2023/01/10 11:23:52;;;;;;;20.20;7.32;;;7.50;99.90;;;;;;4970680;28;20123;-84
2023/01/10 11:26:38;;;;;;;23.13;7.85;;;7.50;99.90;;;;;;4972678;28;20054;-84
2023/01/10 11:29:25;;;;;;;30.45;9.25;;;7.50;99.90;;;;;;4969577;28;20038;-84
2023/01/10 11:31:53;;;;;;;27.08;7.90;;;7.50;99.90;;;;;;4986172;28;20042;-84
2023/01/10 11:34:29;;;;;;;32.75;8.82;;;7.50;99.90;;;;;;4971661;28;20508;-85
2023/01/10 11:36:58;;;;;;;26.58;8.95;;;7.50;99.90;;;;;;4984246;28;20046;-84
2023/01/10 11:39:26;;;;;;;28.05;9.25;;;7.50;99.90;;;;;;4997361;28;20042;-84
2023/01/10 11:41:57;;;;;;;28.48;9.80;;;7.50;99.90;;;;;;4967615;28;20123;-84
2023/01/10 11:44:29;;;;;;;33.95;10.40;;;7.50;99.90;;;;;;4991354;28;20106;-84
2023/01/10 11:47:02;;;;;;;25.73;9.07;;;7.40;99.90;;;;;;4996438;28;20125;-84
2023/01/10 11:49:35;;;;;;;29.85;10.43;;;7.40;99.90;;;;;;4986382;28;20042;-84
2023/01/10 11:52:18;;;;;;;26.20;8.90;;;7.40;99.90;;;;;;4983866;28;20501;-84
2023/01/10 11:54:43;;;;;;;33.65;11.13;;;7.30;99.90;;;;;;4967188;28;20372;-84
2023/01/10 11:57:20;;;;;;;30.27;10.10;;;7.30;99.90;;;;;;4979549;28;20050;-84
2023/01/10 11:59:56;;;;;;;32.47;10.27;;;7.20;99.90;;;;;;4969029;28;20104;-84
2023/01/10 12:02:23;;;;;;;33.53;10.07;;;7.30;99.90;;;;;;4972858;28;20116;-84
2023/01/10 12:04:50;;;;;;;29.20;9.25;;;7.20;99.90;;;;;;4983366;28;20050;-84
2023/01/10 12:07:19;;;;;;;31.35;9.30;;;7.20;99.90;;;;;;4965224;28;20049;-84
2023/01/10 12:09:58;;;;;;;25.45;9.10;;;7.20;99.90;;;;;;4992584;28;20080;-85
2023/01/10 12:12:28;;;;;;;28.60;8.45;;;7.20;99.90;;;;;;4978872;28;20448;-84
2023/01/10 12:14:56;;;;;;;27.55;8.25;;;7.20;99.90;;;;;;4977597;28;20046;-84
2023/01/10 12:17:31;;;;;;;29.45;8.05;;;7.10;99.90;;;;;;4965356;28;20050;-84
2023/01/10 12:20:00;;;;;;;30.17;8.75;;;7.10;99.90;;;;;;4961650;28;20042;-84
2023/01/10 12:22:40;;;;;;;29.83;9.00;;;7.10;99.90;;;;;;4981705;28;20046;-84
2023/01/10 12:25:17;;;;;;;30.30;8.90;;;7.10;99.90;;;;;;4988576;28;20133;-84
2023/01/10 12:27:45;;;;;;;31.60;8.48;;;7.10;99.90;;;;;;4967370;28;20042;-84
2023/01/10 12:30:37;;;;;;;26.85;8.63;;;7.00;99.90;;;;;;4968120;28;20112;-84
2023/01/10 12:33:09;;;;;;;31.70;8.70;;;7.10;99.90;;;;;;4986210;28;20093;-84
2023/01/10 12:35:55;;;;;;;25.70;8.73;;;7.00;99.90;;;;;;4984350;28;20034;-82
2023/01/10 12:39:13;;;;;;;28.77;8.07;;;7.00;99.90;;;;;;4969264;28;20042;-82
2023/01/10 12:44:09;;;;;;;23.50;6.75;;;7.00;99.90;;;;;;4983818;28;20090;-84
2023/01/10 12:44:11;;;;;;;29.40;7.38;;;7.00;99.90;;;;;;4983346;28;20050;-84
2023/01/10 12:47:09;;;;;;;28.30;7.72;;;7.00;99.90;;;;;;4965541;28;20058;-84
2023/01/10 12:49:43;;;;;;;22.65;7.00;;;7.00;99.90;;;;;;4969576;28;20046;-84
2023/01/10 12:52:13;;;;;;;;;;;7.00;99.90;;;;;;4969698;28;20050;-83
2023/01/10 12:54:38;;;;;;;17.52;7.07;;;7.00;99.90;;;;;;4993445;28;19928;-82
2023/01/10 12:57:24;;;;;;;24.65;7.03;;;7.00;99.90;;;;;;4964341;28;20441;-82
2023/01/10 12:59:51;;;;;;;26.33;7.07;;;7.00;99.90;;;;;;4983708;28;20050;-81
2023/01/10 13:02:21;;;;;;;33.42;8.38;;;7.00;99.90;;;;;;4983565;28;20053;-82
2023/01/10 13:04:55;;;;;;;26.58;7.35;;;7.00;99.90;;;;;;4971598;28;20058;-84
2023/01/10 13:07:23;;;;;;;25.13;7.60;;;7.00;99.90;;;;;;4978036;28;20053;-84
2023/01/10 13:09:49;;;;;;;28.00;7.75;;;7.00;99.90;;;;;;5017944;28;20149;-84
2023/01/10 13:12:32;;;;;;;27.13;8.38;;;7.00;99.90;;;;;;4997331;28;20138;-85